createdAt,value
2022-11-28T00:03:33.825Z,-0.95449
2022-11-28T00:08:35.712Z,-1.37811
2022-11-28T00:13:37.452Z,-1.38605
2022-11-28T00:18:39.206Z,-1.60865
2022-11-28T00:23:41.029Z,-1.47528
2022-11-28T00:28:42.748Z,-1.23521
2022-11-28T00:33:44.421Z,-0.47116
2022-11-28T00:38:46.120Z,-1.2676
2022-11-28T00:43:47.855Z,-0.42734
2022-11-28T00:48:49.549Z,-0.40479
2022-11-28T00:53:51.208Z,-1.15963
2022-11-28T00:58:52.898Z,-2.34538
2022-11-28T01:03:54.720Z,-2.63213
2022-11-28T01:08:56.591Z,-2.68199
2022-11-28T01:13:58.321Z,-1.71567
2022-11-28T01:19:00.010Z,-0.77538
2022-11-28T01:24:01.832Z,-0.7576
2022-11-28T01:29:08.735Z,-0.82905
2022-11-28T01:34:10.526Z,-0.97227
2022-11-28T01:39:12.249Z,-0.53785
2022-11-28T01:44:14.008Z,-0.67789
2022-11-28T01:49:15.726Z,-1.00561
2022-11-28T01:54:17.402Z,-0.87637
2022-11-28T01:59:19.576Z,-1.09008
2022-11-28T02:04:21.387Z,-1.46607
2022-11-28T02:09:23.090Z,-1.41272
2022-11-28T02:14:24.820Z,-2.10341
2022-11-28T02:19:26.481Z,-3.74737
2022-11-28T02:24:28.260Z,-2.80298
2022-11-28T02:29:29.932Z,-2.19962
2022-11-28T02:34:31.838Z,-2.19264
2022-11-28T02:39:33.525Z,-2.46542
2022-11-28T02:44:35.155Z,-2.32284
2022-11-28T02:49:36.816Z,-1.90811
2022-11-28T02:54:38.635Z,-1.91573
2022-11-28T02:59:40.331Z,-2.39492
2022-11-28T03:04:42.336Z,-2.04498
2022-11-28T03:09:44.280Z,-2.36602
2022-11-28T03:14:45.922Z,-2.73819
2022-11-28T03:19:47.508Z,-2.3349
2022-11-28T03:24:49.143Z,-3.63432
2022-11-28T03:29:50.724Z,-3.66068
2022-11-28T03:34:52.393Z,-3.03352
2022-11-28T03:39:54.010Z,-2.31172
2022-11-28T03:44:55.672Z,-2.66548
2022-11-28T03:49:57.276Z,-3.25644
2022-11-28T03:54:58.907Z,-3.04146
2022-11-28T04:00:00.559Z,-2.64865
2022-11-28T04:05:02.190Z,-3.46666
2022-11-28T04:10:03.792Z,-3.79596
2022-11-28T04:15:05.545Z,-2.93254
2022-11-28T04:20:07.148Z,-3.83184
2022-11-28T04:25:08.802Z,-5.10171
2022-11-28T04:30:10.475Z,-5.2011
2022-11-28T04:35:12.095Z,-4.05539
2022-11-28T04:40:13.717Z,-3.95949
2022-11-28T04:45:15.332Z,-4.0954
2022-11-28T04:50:17.001Z,-3.90233
2022-11-28T04:55:18.818Z,-3.42347
2022-11-28T05:00:20.623Z,-2.70739
2022-11-28T05:05:22.499Z,-4.03253
2022-11-28T05:10:24.206Z,-4.42565
2022-11-28T05:15:25.986Z,-3.71181
2022-11-28T05:20:27.787Z,-3.81056
2022-11-28T05:25:29.522Z,-3.50476
2022-11-28T05:30:31.382Z,-3.67592
2022-11-28T05:35:33.120Z,-3.30661
2022-11-28T05:40:34.807Z,-3.27009
2022-11-28T05:45:36.535Z,-4.18686
2022-11-28T05:50:40.009Z,-4.59554
2022-11-28T05:55:42.021Z,-4.04936
2022-11-28T06:00:43.767Z,-4.26021
2022-11-28T06:05:45.562Z,-4.44344
2022-11-28T06:10:47.342Z,-3.79913
2022-11-28T06:15:49.143Z,-3.59654
2022-11-28T06:20:50.856Z,-3.33456
2022-11-28T06:25:52.555Z,-3.34789
2022-11-28T06:30:54.197Z,-4.06905
2022-11-28T06:35:56.090Z,-4.32721
2022-11-28T06:40:57.741Z,-4.73018
2022-11-28T06:45:59.589Z,-4.6473
2022-11-28T06:51:01.289Z,-3.76706
2022-11-28T06:56:02.941Z,-4.00935
2022-11-28T07:01:04.651Z,-3.7931
2022-11-28T07:06:06.351Z,-5.04741
2022-11-28T07:11:08.169Z,-4.4066
2022-11-28T07:16:09.955Z,-4.85529
2022-11-28T07:21:11.895Z,-4.49107
2022-11-28T07:26:13.602Z,-4.28625
2022-11-28T07:31:15.625Z,-4.50059
2022-11-28T07:36:17.515Z,-4.94992
2022-11-28T07:41:23.624Z,-4.66159
2022-11-28T07:46:28.483Z,-4.90705
2022-11-28T07:51:30.192Z,-5.41671
2022-11-28T07:56:57.248Z,-5.3513
2022-11-28T08:02:12.858Z,-5.33732
2022-11-28T08:07:14.685Z,-4.96611
2022-11-28T08:12:16.447Z,-4.44058
2022-11-28T08:17:18.180Z,-5.63772
2022-11-28T08:22:19.856Z,-4.9315
2022-11-28T08:27:21.532Z,-4.54378
2022-11-28T08:32:23.191Z,-4.28022
2022-11-28T08:37:24.937Z,-4.49043
2022-11-28T08:42:26.581Z,-4.96993
2022-11-28T08:47:28.274Z,-5.35225
2022-11-28T08:52:30.012Z,-5.91652
2022-11-28T08:57:31.632Z,-5.81014
2022-11-28T09:02:33.506Z,-6.21279
2022-11-28T09:07:35.245Z,-5.3894
2022-11-28T09:12:36.908Z,-5.33193
2022-11-28T09:17:38.659Z,-4.71843
2022-11-28T09:22:40.363Z,-4.61396
2022-11-28T09:27:42.247Z,-4.62761
2022-11-28T09:32:44.142Z,-4.96802
2022-11-28T09:37:45.786Z,-4.61777
2022-11-28T09:42:47.406Z,-4.07413
2022-11-28T09:47:49.073Z,-4.72796
2022-11-28T09:52:50.848Z,-5.0039
2022-11-28T09:57:52.568Z,-4.82925
2022-11-28T10:02:54.199Z,-4.36214
2022-11-28T10:07:55.880Z,-4.82608
2022-11-28T10:12:57.649Z,-4.231
2022-11-28T10:17:59.386Z,-3.96521
2022-11-28T10:23:01.150Z,-4.91499
2022-11-28T10:28:02.859Z,-4.91848
2022-11-28T10:33:04.422Z,-4.54569
2022-11-28T10:38:06.042Z,-4.83529
2022-11-28T10:43:07.725Z,-5.30081
2022-11-28T10:48:38.050Z,-5.13759
2022-11-28T10:53:40.697Z,-4.83814
2022-11-28T10:58:42.350Z,-4.48662
2022-11-28T11:03:43.968Z,-4.6292
2022-11-28T11:08:45.591Z,-4.75336
2022-11-28T11:13:47.248Z,-6.15976
2022-11-28T11:18:49.022Z,-4.26593
2022-11-28T11:23:50.650Z,-3.95505
2022-11-28T11:28:52.372Z,-4.31356
2022-11-28T11:33:54.087Z,-3.72419
2022-11-28T11:38:56.011Z,-3.87217
2022-11-28T11:43:57.741Z,-4.39104
2022-11-28T11:48:59.462Z,-3.90805
2022-11-28T11:54:01.118Z,-3.52064
2022-11-28T11:59:02.806Z,-3.62416
2022-11-28T12:04:23.655Z,-3.78516
2022-11-28T12:09:32.359Z,-3.82327
2022-11-28T12:14:34.007Z,-4.02364
2022-11-28T12:19:35.657Z,-4.89086
2022-11-28T12:24:37.308Z,-4.27768
2022-11-28T12:29:38.968Z,-3.71784
2022-11-28T12:34:40.613Z,-5.67138
2022-11-28T12:39:42.673Z,-4.99215
2022-11-28T12:44:44.582Z,-5.52626
2022-11-28T12:49:46.981Z,-4.68223
2022-11-28T12:54:48.939Z,-4.7432
2022-11-28T12:59:50.757Z,-4.4536
2022-11-28T13:04:52.692Z,-4.86291
2022-11-28T13:09:54.527Z,-4.82163
2022-11-28T13:14:56.307Z,-4.37167
2022-11-28T13:19:57.944Z,-4.05095
2022-11-28T13:24:59.561Z,-3.96775
2022-11-28T13:30:01.240Z,-4.00554
2022-11-28T13:35:02.959Z,-4.70065
2022-11-28T13:40:04.736Z,-4.46725
2022-11-28T13:45:06.586Z,-4.32944
2022-11-28T13:50:08.308Z,-4.69049
2022-11-28T13:55:10.053Z,-4.57363
2022-11-28T14:00:11.854Z,-4.05126
2022-11-28T14:05:13.683Z,-4.4917
2022-11-28T14:10:15.506Z,-4.60634
2022-11-28T14:15:17.322Z,-4.24465
2022-11-28T14:20:19.099Z,-4.71589
2022-11-28T14:25:20.783Z,-4.37199
2022-11-28T14:30:22.446Z,-4.94293
2022-11-28T14:35:24.101Z,-4.68953
2022-11-28T14:40:25.772Z,-4.5098
2022-11-28T14:45:27.663Z,-4.43423
2022-11-28T14:50:29.324Z,-4.5949
2022-11-28T14:55:31.288Z,-4.49805
2022-11-28T15:00:32.986Z,-4.09572
2022-11-28T15:05:34.647Z,-3.96108
2022-11-28T15:10:36.315Z,-3.90869
2022-11-28T15:15:37.963Z,-4.07254
2022-11-28T15:20:39.633Z,-3.77754
2022-11-28T15:25:41.296Z,-4.04174
2022-11-28T15:30:42.931Z,-4.27704
2022-11-28T15:35:44.535Z,-4.21417
2022-11-28T15:40:46.162Z,-3.81787
2022-11-28T15:45:47.874Z,-4.23195
2022-11-28T15:50:49.528Z,-3.88328
2022-11-28T15:55:51.142Z,-4.02872
2022-11-28T16:00:52.814Z,-4.07191
2022-11-28T16:05:54.445Z,-3.5905
2022-11-28T16:10:56.178Z,-3.47364
2022-11-28T16:15:57.848Z,-3.52921
2022-11-28T16:20:59.517Z,-4.16495
2022-11-28T16:26:01.191Z,-4.55648
2022-11-28T16:31:03.009Z,-4.9007
2022-11-28T16:36:04.887Z,-5.6717
2022-11-28T16:41:06.660Z,-5.10996
2022-11-28T16:46:08.374Z,-4.43454
2022-11-28T16:51:10.263Z,-3.4746
2022-11-28T16:56:11.908Z,-3.12974
2022-11-28T17:01:13.638Z,-4.19003
2022-11-28T17:06:15.373Z,-3.84645
2022-11-28T17:11:16.980Z,-2.75185
2022-11-28T17:16:18.718Z,-3.07226
2022-11-28T17:21:20.651Z,-2.62324
2022-11-28T17:26:22.258Z,-3.14688
2022-11-28T17:31:23.971Z,-2.57339
2022-11-28T17:36:25.601Z,-2.77281
2022-11-28T17:41:27.263Z,-3.23866
2022-11-28T17:46:28.976Z,-4.08588
2022-11-28T17:51:30.568Z,-4.30403
2022-11-28T17:56:32.189Z,-4.43169
2022-11-28T18:01:34.059Z,-4.60411
2022-11-28T18:06:35.788Z,-4.9785
2022-11-28T18:11:37.650Z,-5.53738
2022-11-28T18:16:39.443Z,-5.48847
2022-11-28T18:21:41.160Z,-5.48339
2022-11-28T18:26:43.050Z,-5.75553
2022-11-28T18:31:44.693Z,-5.62819
2022-11-28T18:36:46.395Z,-5.99845
2022-11-28T18:41:48.064Z,-5.48371
2022-11-28T18:46:49.750Z,-5.37829
2022-11-28T18:51:51.443Z,-5.46752
2022-11-28T18:56:53.312Z,-4.77781
2022-11-28T19:01:54.941Z,-5.14807
2022-11-28T19:06:56.733Z,-5.70345
2022-11-28T19:11:58.467Z,-5.5831
2022-11-28T19:17:00.135Z,-5.57929
2022-11-28T19:22:01.810Z,-5.48403
2022-11-28T19:27:03.414Z,-5.2554
2022-11-28T19:32:05.102Z,-5.37575
2022-11-28T19:37:06.717Z,-4.7016
2022-11-28T19:42:08.440Z,-4.5641
2022-11-28T19:47:10.168Z,-4.11858
2022-11-28T19:52:11.865Z,-3.70927
2022-11-28T19:57:13.455Z,-3.17578
2022-11-28T20:02:15.117Z,-4.06587
2022-11-28T20:07:17.158Z,-3.95759
2022-11-28T20:12:18.821Z,-3.89281
2022-11-28T20:17:20.507Z,-4.04777
2022-11-28T20:22:22.151Z,-4.02777
2022-11-28T20:27:23.753Z,-5.28874
2022-11-28T20:32:25.503Z,-5.59104
2022-11-28T20:37:27.251Z,-5.6844
2022-11-28T20:42:29.082Z,-5.94542
2022-11-28T20:47:30.777Z,-5.17823
2022-11-28T20:52:32.373Z,-4.19003
2022-11-28T20:57:33.996Z,-3.94298
2022-11-28T21:02:36.001Z,-5.21761
2022-11-28T21:07:37.841Z,-4.43137
2022-11-28T21:12:39.543Z,-4.31134
2022-11-28T21:17:41.245Z,-4.5387
2022-11-28T21:22:42.921Z,-4.22528
2022-11-28T21:27:44.598Z,-3.61273
2022-11-28T21:32:46.363Z,-4.34944
2022-11-28T21:37:48.388Z,-5.01248
2022-11-28T21:42:50.030Z,-5.60628
2022-11-28T21:47:51.699Z,-5.54944
2022-11-28T21:52:53.524Z,-5.16839
2022-11-28T21:57:55.242Z,-4.84577
2022-11-28T22:03:02.737Z,-4.06746
2022-11-28T22:08:05.738Z,-4.04809
2022-11-28T22:13:07.415Z,-3.95632
2022-11-28T22:18:09.063Z,-3.94806
2022-11-28T22:23:10.789Z,-3.92012
2022-11-28T22:28:12.428Z,-3.21738
2022-11-28T22:33:14.169Z,-2.68802
2022-11-28T22:38:15.882Z,-3.9036
2022-11-28T22:43:17.623Z,-3.19166
2022-11-28T22:48:19.343Z,-3.45554
2022-11-28T22:53:20.978Z,-3.39457
2022-11-28T22:58:22.724Z,-4.04174
2022-11-28T23:03:24.625Z,-4.37675
2022-11-28T23:08:26.365Z,-3.75626
2022-11-28T23:13:28.057Z,-3.37806
2022-11-28T23:18:29.719Z,-4.21131
2022-11-28T23:23:31.470Z,-4.17924
2022-11-28T23:28:33.072Z,-4.09191
2022-11-28T23:33:34.831Z,-4.26085
2022-11-28T23:38:36.751Z,-4.44185
2022-11-28T23:43:38.472Z,-4.14843
2022-11-28T23:48:40.665Z,-3.88201
2022-11-28T23:53:42.289Z,-4.13891
2022-11-28T23:58:44.069Z,-4.60665
